Time;durP1;ratioP1;P1;durP2;ratioP2;P2;SDS_P1;SDS_P2;PMS_P1;PMS_P2;Temp;Humidity;BMP_temperature;BMP_pressure;BME280_temperature;BME280_humidity;BME280_pressure;Samples;Min_cycle;Max_cycle;Signal;HPM_P1;HPM_P2
2021/08/09 00:01:07;;;;;;;0.10;0.10;;;15.90;99.90;;;;;;4917640;29;20031;-74
2021/08/09 00:03:33;;;;;;;0.10;0.10;;;16.10;99.90;;;;;;4916371;29;20642;-74
2021/08/09 00:05:59;;;;;;;0.10;0.10;;;16.10;99.90;;;;;;4917513;29;20024;-74
2021/08/09 00:08:24;;;;;;;0.10;0.10;;;16.30;99.90;;;;;;4915999;29;20075;-74
2021/08/09 00:10:50;;;;;;;0.10;0.10;;;16.30;99.90;;;;;;4916155;29;20095;-74
2021/08/09 00:13:16;;;;;;;0.10;0.10;;;16.30;99.90;;;;;;4916170;29;20163;-74
2021/08/09 00:15:42;;;;;;;0.10;0.10;;;16.30;99.90;;;;;;4917303;29;20496;-74
2021/08/09 00:18:07;;;;;;;0.10;0.10;;;16.20;99.90;;;;;;4917214;29;20433;-74
2021/08/09 00:20:33;;;;;;;0.10;0.10;;;16.30;99.90;;;;;;4915888;29;20035;-74
2021/08/09 00:22:59;;;;;;;0.10;0.10;;;16.30;99.90;;;;;;4917306;29;20482;-74
2021/08/09 00:25:25;;;;;;;0.10;0.10;;;16.50;99.90;;;;;;4915839;29;20484;-74
2021/08/09 00:27:50;;;;;;;0.10;0.10;;;16.40;99.90;;;;;;4916928;29;20388;-74
2021/08/09 00:30:16;;;;;;;0.10;0.10;;;16.30;99.90;;;;;;4917027;29;20028;-74
2021/08/09 00:32:42;;;;;;;0.10;0.10;;;16.10;99.90;;;;;;4917011;29;20032;-74
2021/08/09 00:35:08;;;;;;;0.10;0.10;;;16.00;99.90;;;;;;4916892;29;20032;-74
2021/08/09 00:37:35;;;;;;;0.10;0.10;;;15.90;99.90;;;;;;4916868;29;20119;-75
2021/08/09 00:40:01;;;;;;;0.10;0.10;;;15.70;99.90;;;;;;4916890;29;20040;-74
2021/08/09 00:42:27;;;;;;;0.20;0.20;;;15.70;99.90;;;;;;4899825;29;20496;-74
2021/08/09 00:44:52;;;;;;;0.10;0.10;;;15.70;99.90;;;;;;4916816;29;20028;-74
2021/08/09 00:47:18;;;;;;;0.10;0.10;;;15.70;99.90;;;;;;4916645;29;20067;-74
2021/08/09 00:49:44;;;;;;;0.10;0.10;;;15.60;99.90;;;;;;4916520;29;20389;-74
2021/08/09 00:52:10;;;;;;;0.17;0.17;;;15.60;99.90;;;;;;4916679;29;20465;-75
2021/08/09 00:54:36;;;;;;;0.10;0.10;;;15.60;99.90;;;;;;4916417;29;20499;-75
2021/08/09 00:57:03;;;;;;;0.10;0.10;;;15.60;99.90;;;;;;4916651;29;20032;-74
2021/08/09 00:59:29;;;;;;;0.10;0.10;;;15.70;99.90;;;;;;4915118;29;20035;-74
2021/08/09 01:01:56;;;;;;;0.10;0.10;;;15.70;99.90;;;;;;4915179;29;20051;-74
2021/08/09 01:04:22;;;;;;;0.03;0.03;;;15.80;99.90;;;;;;4915131;29;20032;-74
2021/08/09 01:06:48;;;;;;;0.10;0.10;;;15.80;99.90;;;;;;4916359;29;20481;-74
2021/08/09 01:09:27;;;;;;;0.10;0.10;;;15.60;99.90;;;;;;4915040;29;20111;-74
2021/08/09 01:12:29;;;;;;;0.10;0.10;;;15.70;99.90;;;;;;4915049;29;20384;-74
2021/08/09 01:15:00;;;;;;;0.30;0.30;;;15.60;99.90;;;;;;4916385;29;20024;-74
2021/08/09 01:17:32;;;;;;;0.20;0.20;;;15.40;99.90;;;;;;4916321;29;20032;-74
2021/08/09 01:20:17;;;;;;;;;;;15.30;99.90;;;;;;4915462;29;20047;-74
2021/08/09 01:22:56;;;;;;;0.10;0.10;;;15.20;99.90;;;;;;4916217;29;19931;-74
2021/08/09 01:26:19;;;;;;;0.20;0.20;;;15.30;99.90;;;;;;4916164;29;20036;-74
2021/08/09 01:28:46;;;;;;;0.30;0.30;;;15.30;99.90;;;;;;4876140;29;20151;-74
2021/08/09 01:31:14;;;;;;;0.10;0.10;;;15.10;99.90;;;;;;4860708;29;20033;-74
2021/08/09 01:33:41;;;;;;;0.13;0.13;;;14.90;99.90;;;;;;4895636;29;20040;-74
2021/08/09 01:36:08;;;;;;;0.40;0.40;;;15.00;99.90;;;;;;4915877;29;20114;-74
2021/08/09 01:38:36;;;;;;;0.10;0.10;;;15.10;99.90;;;;;;4915895;29;20028;-74
2021/08/09 01:41:04;;;;;;;0.00;0.00;;;15.30;99.90;;;;;;4916051;29;20510;-75
2021/08/09 01:43:32;;;;;;;0.10;0.10;;;15.40;99.90;;;;;;4914662;29;20120;-74
2021/08/09 01:46:01;;;;;;;0.10;0.10;;;15.50;99.90;;;;;;4914706;29;20042;-74
2021/08/09 01:48:28;;;;;;;0.10;0.10;;;15.60;99.90;;;;;;4915603;29;20063;-74
2021/08/09 01:50:55;;;;;;;0.10;0.10;;;15.80;99.90;;;;;;4914599;29;20026;-74
2021/08/09 01:53:23;;;;;;;0.10;0.10;;;15.80;99.90;;;;;;4915824;29;20035;-74
2021/08/09 01:55:49;;;;;;;0.10;0.10;;;15.90;99.90;;;;;;4915844;29;20362;-74
2021/08/09 01:58:15;;;;;;;0.20;0.20;;;15.80;99.90;;;;;;4914336;29;20088;-74
2021/08/09 02:00:41;;;;;;;0.10;0.10;;;15.90;99.90;;;;;;4915850;29;20481;-75
2021/08/09 02:03:07;;;;;;;0.30;0.30;;;15.90;99.90;;;;;;4915671;29;20107;-75
2021/08/09 02:05:33;;;;;;;0.20;0.20;;;15.90;99.90;;;;;;4915743;29;20110;-74
2021/08/09 02:07:59;;;;;;;0.10;0.10;;;15.80;99.90;;;;;;4919229;29;20087;-74
2021/08/09 02:10:29;;;;;;;0.10;0.10;;;15.80;99.90;;;;;;4902681;29;20058;-74
2021/08/09 02:13:27;;;;;;;0.17;0.17;;;15.70;99.90;;;;;;4918302;29;20120;-74
2021/08/09 02:16:10;;;;;;;0.17;0.17;;;15.70;99.90;;;;;;4919446;29;20043;-74
2021/08/09 02:18:47;;;;;;;0.10;0.10;;;15.60;99.90;;;;;;4918155;29;20481;-74
2021/08/09 02:21:16;;;;;;;0.10;0.10;;;15.60;99.90;;;;;;4919514;29;20435;-74
2021/08/09 02:23:57;;;;;;;0.10;0.10;;;15.60;99.90;;;;;;4902347;29;20028;-74
2021/08/09 02:26:28;;;;;;;0.15;0.15;;;15.70;99.90;;;;;;4918125;29;20043;-74
2021/08/09 02:29:00;;;;;;;0.13;0.13;;;15.70;99.90;;;;;;4917878;29;20025;-74
2021/08/09 02:31:29;;;;;;;0.10;0.10;;;15.70;99.90;;;;;;4919306;29;20108;-74
2021/08/09 02:33:55;;;;;;;0.10;0.10;;;15.70;99.90;;;;;;4919035;29;20016;-74
2021/08/09 02:36:21;;;;;;;0.10;0.10;;;15.70;99.90;;;;;;4917747;29;20036;-74
2021/08/09 02:38:47;;;;;;;0.10;0.10;;;15.70;99.90;;;;;;4918932;29;20030;-74
2021/08/09 02:41:13;;;;;;;0.08;0.08;;;15.80;99.90;;;;;;4902055;29;20031;-74
2021/08/09 02:43:39;;;;;;;0.20;0.20;;;15.90;99.90;;;;;;4918932;29;20028;-74
2021/08/09 02:46:05;;;;;;;0.20;0.20;;;15.60;99.90;;;;;;4918962;29;20032;-75
2021/08/09 02:48:32;;;;;;;0.10;0.10;;;15.70;99.90;;;;;;4918719;29;20028;-74
2021/08/09 02:50:58;;;;;;;0.10;0.10;;;15.70;99.90;;;;;;4917548;29;20028;-74
2021/08/09 02:53:25;;;;;;;0.10;0.10;;;15.70;99.90;;;;;;4918765;29;20032;-74
2021/08/09 02:55:55;;;;;;;0.10;0.10;;;15.70;99.90;;;;;;4917663;29;20508;-74
2021/08/09 02:58:21;;;;;;;0.10;0.10;;;15.70;99.90;;;;;;4918539;29;20024;-75
2021/08/09 03:00:47;;;;;;;0.10;0.10;;;15.70;99.90;;;;;;4918699;29;20032;-74
2021/08/09 03:03:18;;;;;;;0.10;0.10;;;15.70;99.90;;;;;;4917415;29;20060;-74
2021/08/09 03:05:44;;;;;;;0.10;0.10;;;15.90;99.90;;;;;;4918623;29;20028;-72
2021/08/09 03:08:14;;;;;;;0.10;0.10;;;16.00;99.90;;;;;;4917068;29;20029;-72
2021/08/09 03:10:41;;;;;;;0.10;0.10;;;15.90;99.90;;;;;;4918798;29;20107;-72
2021/08/09 03:13:09;;;;;;;0.10;0.10;;;15.90;99.90;;;;;;4917336;29;20091;-72
2021/08/09 03:15:36;;;;;;;0.10;0.10;;;15.80;99.90;;;;;;4918419;29;20071;-72
2021/08/09 03:18:02;;;;;;;0.13;0.13;;;15.60;99.90;;;;;;4918077;29;20028;-72
2021/08/09 03:20:29;;;;;;;0.10;0.10;;;15.60;99.90;;;;;;4918384;29;20039;-72
2021/08/09 03:22:55;;;;;;;0.10;0.10;;;15.70;99.90;;;;;;4917024;29;20032;-72
2021/08/09 03:25:20;;;;;;;0.00;0.00;;;15.60;99.90;;;;;;4918239;29;20380;-72
2021/08/09 03:27:46;;;;;;;0.20;0.20;;;15.50;99.90;;;;;;4916691;29;20106;-75
2021/08/09 03:30:12;;;;;;;0.08;0.08;;;15.40;99.90;;;;;;4918225;29;20384;-75
2021/08/09 03:32:37;;;;;;;0.10;0.10;;;15.20;99.90;;;;;;4918093;29;20047;-75
2021/08/09 03:35:04;;;;;;;0.20;0.20;;;15.40;99.90;;;;;;4918035;29;20039;-75
2021/08/09 03:37:29;;;;;;;19.23;7.85;;;15.30;99.90;;;;;;4918060;29;20111;-72
2021/08/09 03:39:55;;;;;;;0.10;0.10;;;15.20;99.90;;;;;;4916766;29;20111;-72
2021/08/09 03:42:22;;;;;;;0.10;0.10;;;15.20;99.90;;;;;;4900981;29;20102;-72
2021/08/09 03:44:49;;;;;;;0.10;0.10;;;15.30;99.90;;;;;;4901027;29;20032;-73
2021/08/09 03:47:14;;;;;;;0.10;0.10;;;15.30;99.90;;;;;;4917838;29;20028;-72
2021/08/09 03:49:40;;;;;;;0.17;0.17;;;15.20;99.90;;;;;;4916406;29;20031;-72
2021/08/09 03:52:06;;;;;;;1.40;0.30;;;15.10;99.90;;;;;;4917855;29;20095;-72
2021/08/09 03:54:32;;;;;;;0.10;0.10;;;15.10;99.90;;;;;;4916403;29;20024;-72
2021/08/09 03:56:57;;;;;;;0.10;0.10;;;15.10;99.90;;;;;;4917776;29;20104;-72
2021/08/09 03:59:23;;;;;;;0.10;0.10;;;15.30;99.90;;;;;;4917433;29;20484;-72
2021/08/09 04:01:49;;;;;;;0.10;0.10;;;15.40;99.90;;;;;;4917612;29;20063;-73
2021/08/09 04:04:16;;;;;;;0.10;0.10;;;15.30;99.90;;;;;;4917496;29;20112;-72
2021/08/09 04:06:41;;;;;;;0.10;0.10;;;15.40;99.90;;;;;;4916215;29;20028;-73
2021/08/09 04:09:08;;;;;;;0.13;0.13;;;15.40;99.90;;;;;;4917361;29;20106;-72
2021/08/09 04:11:34;;;;;;;0.13;0.13;;;15.40;99.90;;;;;;4917454;29;20361;-72
2021/08/09 04:14:01;;;;;;;0.10;0.10;;;15.30;99.90;;;;;;4917292;29;20036;-72
2021/08/09 04:16:28;;;;;;;0.10;0.10;;;15.30;99.90;;;;;;4917320;29;20157;-72
2021/08/09 04:18:54;;;;;;;0.10;0.10;;;15.20;99.90;;;;;;4900169;29;20035;-72
2021/08/09 04:21:20;;;;;;;0.20;0.20;;;15.20;99.90;;;;;;4917261;29;20036;-72
2021/08/09 04:23:46;;;;;;;0.10;0.10;;;15.10;99.90;;;;;;4917049;29;20038;-72
2021/08/09 04:26:13;;;;;;;0.10;0.10;;;15.00;99.90;;;;;;4917198;29;20039;-72
2021/08/09 04:28:38;;;;;;;0.10;0.10;;;15.10;99.90;;;;;;4915170;29;20043;-73
2021/08/09 04:31:04;;;;;;;0.10;0.10;;;15.20;99.90;;;;;;4917120;29;20024;-72
2021/08/09 04:33:30;;;;;;;0.20;0.20;;;15.30;99.90;;;;;;4915630;29;20032;-72
2021/08/09 04:35:56;;;;;;;0.40;0.40;;;15.30;99.90;;;;;;4900056;29;20393;-72
2021/08/09 04:38:22;;;;;;;0.13;0.13;;;15.10;99.90;;;;;;4916744;29;20032;-72
2021/08/09 04:40:47;;;;;;;0.10;0.10;;;15.00;99.90;;;;;;4915730;29;20043;-72
2021/08/09 04:43:13;;;;;;;0.30;0.30;;;14.90;99.90;;;;;;4916915;29;20031;-72
2021/08/09 04:45:39;;;;;;;0.22;0.20;;;14.70;99.90;;;;;;4915420;29;20556;-73
2021/08/09 04:48:04;;;;;;;1.77;0.65;;;14.50;99.90;;;;;;4916560;29;20076;-72
2021/08/09 04:50:30;;;;;;;0.17;0.17;;;14.50;99.90;;;;;;4915411;29;20459;-72
2021/08/09 04:52:56;;;;;;;0.10;0.10;;;14.40;99.90;;;;;;4916847;29;20034;-73
2021/08/09 04:55:22;;;;;;;0.25;0.25;;;14.40;99.90;;;;;;4915380;29;20027;-73
2021/08/09 04:57:47;;;;;;;0.45;0.30;;;14.50;99.90;;;;;;4916523;29;20477;-72
2021/08/09 05:00:14;;;;;;;0.10;0.10;;;14.40;99.90;;;;;;4916388;29;20039;-71
2021/08/09 05:02:39;;;;;;;0.20;0.20;;;14.50;99.90;;;;;;4915286;29;20028;-72
2021/08/09 05:05:05;;;;;;;0.10;0.10;;;14.50;99.90;;;;;;4915166;29;20035;-72
2021/08/09 05:07:31;;;;;;;0.10;0.10;;;14.50;99.90;;;;;;4915302;29;20393;-72
2021/08/09 05:09:57;;;;;;;0.20;0.20;;;14.70;99.90;;;;;;4914884;29;20028;-72
2021/08/09 05:12:23;;;;;;;0.10;0.10;;;14.90;99.90;;;;;;4916405;29;20020;-73
2021/08/09 05:14:49;;;;;;;0.20;0.20;;;15.10;99.90;;;;;;4916106;29;20051;-73
2021/08/09 05:17:15;;;;;;;0.30;0.30;;;15.40;99.90;;;;;;4916406;29;20032;-73
2021/08/09 05:19:41;;;;;;;0.85;0.85;;;15.60;99.90;;;;;;4916004;29;20039;-72
2021/08/09 05:22:07;;;;;;;0.20;0.20;;;15.70;99.90;;;;;;4916272;29;20037;-72
2021/08/09 05:24:34;;;;;;;0.10;0.10;;;15.60;99.90;;;;;;4916051;29;20112;-73
2021/08/09 05:27:00;;;;;;;0.30;0.30;;;15.70;99.90;;;;;;4912469;29;20108;-72
2021/08/09 05:29:26;;;;;;;0.10;0.10;;;15.60;99.90;;;;;;4906146;29;20118;-72
2021/08/09 05:31:52;;;;;;;0.10;0.10;;;15.60;99.90;;;;;;4904872;29;20028;-72
2021/08/09 05:34:18;;;;;;;0.10;0.10;;;15.80;99.90;;;;;;4896986;29;20397;-72
2021/08/09 05:36:44;;;;;;;0.10;0.10;;;15.80;99.90;;;;;;4912891;29;20433;-72
2021/08/09 05:39:10;;;;;;;0.10;0.10;;;15.60;99.90;;;;;;4915820;29;20051;-72
2021/08/09 05:41:37;;;;;;;0.10;0.10;;;15.60;99.90;;;;;;4915085;29;20032;-72
2021/08/09 05:44:03;;;;;;;0.10;0.10;;;15.60;99.90;;;;;;4909505;29;20035;-72
2021/08/09 05:46:28;;;;;;;0.20;0.20;;;15.80;99.90;;;;;;4896938;29;20092;-72
2021/08/09 05:48:54;;;;;;;1.90;0.57;;;15.80;99.90;;;;;;4950281;23;20508;-91
2021/08/09 05:51:20;;;;;;;0.10;0.10;;;15.70;99.90;;;;;;4919650;29;20024;-92
2021/08/09 05:53:47;;;;;;;0.22;0.22;;;15.60;99.90;;;;;;4919254;29;20496;-91
2021/08/09 05:56:13;;;;;;;0.20;0.20;;;15.50;99.90;;;;;;4933878;29;20024;-90
2021/08/09 06:02:05;;;;;;;4.47;1.42;;;15.50;99.90;;;;;;4920376;29;20115;-91
2021/08/09 06:04:32;;;;;;;0.20;0.20;;;15.50;99.90;;;;;;4899519;29;20028;-91
2021/08/09 06:06:58;;;;;;;0.35;0.35;;;15.60;99.90;;;;;;4895234;29;20119;-92
2021/08/09 06:09:24;;;;;;;0.20;0.20;;;15.60;99.90;;;;;;4881598;29;20055;-92
2021/08/09 06:11:50;;;;;;;0.10;0.10;;;15.80;99.90;;;;;;4881001;29;20072;-92
2021/08/09 06:14:16;;;;;;;0.10;0.10;;;16.00;99.90;;;;;;4881689;29;20115;-93
2021/08/09 06:16:42;;;;;;;2.00;1.02;;;16.20;99.90;;;;;;4881851;29;20056;-92
2021/08/09 06:19:07;;;;;;;0.13;0.13;;;16.20;99.90;;;;;;4880952;29;20033;-92
2021/08/09 06:21:33;;;;;;;0.10;0.10;;;16.30;99.90;;;;;;4885974;29;20119;-92
2021/08/09 06:23:59;;;;;;;0.10;0.10;;;16.50;99.90;;;;;;4883566;29;20028;-92
2021/08/09 06:26:25;;;;;;;0.10;0.10;;;16.60;99.90;;;;;;4881051;29;20549;-92
2021/08/09 06:28:50;;;;;;;0.10;0.10;;;16.60;99.90;;;;;;4880806;29;20052;-92
2021/08/09 06:31:16;;;;;;;0.10;0.10;;;16.80;99.90;;;;;;4881907;29;20025;-92
2021/08/09 06:33:42;;;;;;;0.10;0.10;;;16.90;99.90;;;;;;4881099;29;20031;-91
2021/08/09 06:36:07;;;;;;;0.10;0.10;;;17.10;99.90;;;;;;4880865;29;20032;-92
2021/08/09 06:38:33;;;;;;;0.15;0.15;;;17.10;99.90;;;;;;4880819;29;20032;-92
2021/08/09 06:40:59;;;;;;;0.10;0.10;;;17.20;99.90;;;;;;4881079;29;20044;-91
2021/08/09 06:43:31;;;;;;;0.10;0.10;;;17.30;99.90;;;;;;4882628;29;20025;-91
2021/08/09 06:45:56;;;;;;;0.10;0.10;;;17.50;99.90;;;;;;4881297;29;20394;-91
2021/08/09 06:48:22;;;;;;;0.10;0.10;;;17.60;99.90;;;;;;4880850;29;20025;-91
2021/08/09 06:51:17;;;;;;;0.20;0.20;;;17.80;99.90;;;;;;4888219;29;20032;-91
2021/08/09 06:53:43;;;;;;;0.10;0.10;;;17.90;99.90;;;;;;4899266;29;20050;-92
2021/08/09 06:56:13;;;;;;;0.10;0.10;;;18.00;99.90;;;;;;4884409;29;20496;-91
2021/08/09 06:58:38;;;;;;;0.10;0.10;;;18.10;99.90;;;;;;4889308;29;20072;-91
2021/08/09 07:01:04;;;;;;;0.10;0.10;;;18.30;99.90;;;;;;4905137;29;20032;-91
2021/08/09 07:03:30;;;;;;;0.10;0.10;;;18.50;99.90;;;;;;4903207;29;20059;-93
2021/08/09 07:05:56;;;;;;;0.10;0.10;;;18.60;99.90;;;;;;4914183;29;20023;-92
2021/08/09 07:08:22;;;;;;;0.10;0.10;;;18.70;99.90;;;;;;4905993;29;20032;-91
2021/08/09 07:10:50;;;;;;;0.10;0.10;;;18.80;99.90;;;;;;4919098;23;20044;-77
2021/08/09 07:13:16;;;;;;;0.10;0.10;;;19.00;99.90;;;;;;4899702;29;20024;-76
2021/08/09 07:15:42;;;;;;;0.03;0.03;;;19.10;97.10;;;;;;4902394;29;20370;-75
2021/08/09 07:18:08;;;;;;;0.13;0.13;;;19.20;98.50;;;;;;4899984;29;20032;-75
2021/08/09 07:20:34;;;;;;;0.10;0.10;;;19.40;96.00;;;;;;4913073;29;20032;-76
2021/08/09 07:23:00;;;;;;;0.10;0.10;;;19.50;95.10;;;;;;4900776;29;20028;-76
2021/08/09 07:25:26;;;;;;;0.10;0.10;;;19.70;94.40;;;;;;4915983;29;20043;-76
2021/08/09 07:27:52;;;;;;;0.15;0.15;;;19.70;95.90;;;;;;4915898;29;20040;-76
2021/08/09 07:30:18;;;;;;;0.10;0.10;;;19.80;95.30;;;;;;4916756;29;20556;-75
2021/08/09 07:32:44;;;;;;;0.80;0.30;;;19.90;93.80;;;;;;4917387;29;20024;-76
2021/08/09 07:35:10;;;;;;;0.30;0.30;;;20.00;93.50;;;;;;4895791;29;20034;-75
2021/08/09 07:37:36;;;;;;;0.10;0.10;;;20.10;91.40;;;;;;4917402;29;20123;-75
2021/08/09 07:40:02;;;;;;;0.10;0.10;;;20.00;88.70;;;;;;4915337;29;20024;-75
2021/08/09 07:42:28;;;;;;;0.10;0.10;;;20.20;87.90;;;;;;4917164;29;20048;-75
2021/08/09 07:44:56;;;;;;;0.10;0.10;;;20.20;86.70;;;;;;4899205;29;20051;-75
2021/08/09 07:47:22;;;;;;;0.10;0.10;;;20.10;87.00;;;;;;4916915;29;20028;-75
2021/08/09 07:49:47;;;;;;;0.10;0.10;;;20.10;88.20;;;;;;4912424;29;20028;-75
2021/08/09 07:52:13;;;;;;;4.78;0.40;;;20.30;87.30;;;;;;4909387;29;20491;-75
2021/08/09 07:54:39;;;;;;;0.00;0.00;;;20.50;86.90;;;;;;4916453;29;20031;-75
2021/08/09 07:57:06;;;;;;;0.10;0.10;;;20.50;86.40;;;;;;4915437;29;20059;-75
2021/08/09 07:59:32;;;;;;;2.13;0.45;;;20.70;86.00;;;;;;4908645;29;20036;-75
2021/08/09 08:02:01;;;;;;;0.10;0.10;;;20.90;84.70;;;;;;4906408;29;20017;-76
2021/08/09 08:04:29;;;;;;;0.15;0.15;;;21.10;84.80;;;;;;4908454;29;20185;-75
2021/08/09 08:06:55;;;;;;;0.10;0.10;;;21.30;86.40;;;;;;4910458;29;20119;-74
2021/08/09 08:09:20;;;;;;;0.10;0.10;;;21.20;86.70;;;;;;4914379;29;20164;-75
2021/08/09 08:11:46;;;;;;;0.10;0.10;;;21.20;84.70;;;;;;4914478;29;20604;-74
2021/08/09 08:14:12;;;;;;;0.10;0.10;;;21.20;81.70;;;;;;4915983;29;20039;-76
2021/08/09 08:16:39;;;;;;;0.17;0.17;;;21.20;80.40;;;;;;4916785;29;20380;-74
2021/08/09 08:19:05;;;;;;;0.10;0.10;;;21.20;80.10;;;;;;4914264;29;20028;-74
2021/08/09 08:21:31;;;;;;;0.00;0.00;;;21.20;79.20;;;;;;4917590;29;20032;-77
2021/08/09 08:23:57;;;;;;;0.20;0.20;;;21.30;79.20;;;;;;4917680;29;20106;-74
2021/08/09 08:26:23;;;;;;;0.13;0.13;;;21.40;76.50;;;;;;4914945;29;20056;-74
2021/08/09 08:28:49;;;;;;;0.63;0.63;;;21.10;78.80;;;;;;4916058;29;20067;-76
2021/08/09 08:31:14;;;;;;;0.10;0.10;;;21.30;78.70;;;;;;4919395;29;20028;-73
2021/08/09 08:33:40;;;;;;;0.10;0.10;;;21.60;76.40;;;;;;4914774;29;20028;-74
2021/08/09 08:36:06;;;;;;;0.08;0.08;;;21.80;76.40;;;;;;4898761;29;20036;-73
2021/08/09 08:38:34;;;;;;;0.10;0.10;;;21.80;77.30;;;;;;4915372;29;20083;-73
2021/08/09 08:41:05;;;;;;;0.75;0.32;;;21.80;74.40;;;;;;4913179;29;20036;-74
2021/08/09 08:43:31;;;;;;;0.57;0.57;;;22.00;75.00;;;;;;4915028;29;20080;-75
2021/08/09 08:46:02;;;;;;;0.00;0.00;;;21.80;72.60;;;;;;4897876;29;20044;-75
2021/08/09 08:48:31;;;;;;;0.03;0.03;;;22.00;74.90;;;;;;4914505;29;20028;-75
2021/08/09 08:50:58;;;;;;;0.00;0.00;;;22.10;71.70;;;;;;4904512;29;20493;-76
2021/08/09 08:53:27;;;;;;;0.10;0.10;;;22.20;72.10;;;;;;4915851;29;20083;-75
2021/08/09 08:55:54;;;;;;;0.10;0.10;;;22.20;72.60;;;;;;4915088;29;20032;-75
2021/08/09 08:58:19;;;;;;;0.38;0.38;;;22.00;72.70;;;;;;4915845;29;20032;-75
2021/08/09 09:00:47;;;;;;;4.70;0.80;;;21.90;74.60;;;;;;4914112;29;20419;-76
2021/08/09 09:03:19;;;;;;;0.15;0.15;;;21.90;74.60;;;;;;4908402;29;20031;-76
2021/08/09 09:06:01;;;;;;;0.30;0.30;;;21.90;75.30;;;;;;4906634;29;20044;-76
2021/08/09 09:08:38;;;;;;;0.10;0.10;;;21.90;75.10;;;;;;4915244;29;20078;-75
2021/08/09 09:11:08;;;;;;;0.95;0.47;;;21.90;75.80;;;;;;4914520;29;20036;-75
2021/08/09 09:13:34;;;;;;;0.13;0.13;;;22.00;75.20;;;;;;4916445;29;20414;-75
2021/08/09 09:16:07;;;;;;;0.10;0.10;;;22.10;74.00;;;;;;4916661;29;20028;-75
2021/08/09 09:18:48;;;;;;;0.10;0.10;;;22.70;74.00;;;;;;4917086;29;20075;-75
2021/08/09 09:21:41;;;;;;;0.03;0.03;;;23.00;70.30;;;;;;4917256;29;20028;-76
2021/08/09 09:24:12;;;;;;;0.10;0.10;;;23.40;70.60;;;;;;4914993;29;20300;-75
2021/08/09 09:26:39;;;;;;;;;;;23.30;70.20;;;;;;4915671;29;20459;-74
2021/08/09 09:29:10;;;;;;;1.15;1.05;;;23.40;69.50;;;;;;4916543;29;20352;-76
2021/08/09 09:31:36;;;;;;;0.10;0.10;;;23.50;67.30;;;;;;4914156;29;20052;-75
2021/08/09 09:34:09;;;;;;;0.65;0.25;;;23.60;66.60;;;;;;4915645;29;20104;-76
2021/08/09 09:36:47;;;;;;;0.00;0.00;;;23.70;65.90;;;;;;4914226;29;20020;-77
2021/08/09 09:39:35;;;;;;;0.00;0.00;;;23.50;64.60;;;;;;4914363;29;20049;-76
2021/08/09 09:42:06;;;;;;;0.10;0.10;;;23.20;66.00;;;;;;4906268;29;20539;-76
2021/08/09 09:44:34;;;;;;;0.95;0.77;;;23.10;66.30;;;;;;4914326;29;20055;-76
2021/08/09 09:47:21;;;;;;;0.05;0.05;;;23.00;66.60;;;;;;4910052;29;20040;-76
2021/08/09 09:49:58;;;;;;;0.10;0.10;;;23.30;68.60;;;;;;4915520;29;20099;-75
2021/08/09 09:52:28;;;;;;;0.10;0.10;;;23.90;65.00;;;;;;4914218;29;20547;-76
2021/08/09 09:54:54;;;;;;;0.95;0.65;;;24.10;62.60;;;;;;4898173;29;20040;-76
2021/08/09 09:57:20;;;;;;;0.00;0.00;;;24.50;61.70;;;;;;4910886;29;20678;-76
2021/08/09 09:59:47;;;;;;;0.10;0.10;;;24.80;58.90;;;;;;4915243;29;20021;-76
2021/08/09 10:02:13;;;;;;;0.00;0.00;;;24.50;61.70;;;;;;4914859;29;20028;-76
2021/08/09 10:04:39;;;;;;;0.00;0.00;;;24.90;63.30;;;;;;4914899;29;20139;-77
2021/08/09 10:07:08;;;;;;;1.98;0.20;;;25.30;62.20;;;;;;4907431;29;20068;-76
2021/08/09 10:09:35;;;;;;;0.03;0.03;;;25.40;61.60;;;;;;4929951;29;20024;-75
2021/08/09 10:12:02;;;;;;;0.05;0.05;;;25.30;60.20;;;;;;4902087;29;20400;-77
2021/08/09 10:14:28;;;;;;;0.20;0.20;;;25.40;57.10;;;;;;4895762;29;20021;-75
2021/08/09 10:16:54;;;;;;;0.00;0.00;;;25.30;58.60;;;;;;4902016;29;20389;-76
2021/08/09 10:19:21;;;;;;;2.47;0.15;;;25.70;60.00;;;;;;4895553;29;20388;-76
2021/08/09 10:21:47;;;;;;;0.00;0.00;;;25.80;58.00;;;;;;4891019;29;20534;-73
2021/08/09 10:24:42;;;;;;;0.00;0.00;;;26.00;58.90;;;;;;4876688;29;20123;-74
2021/08/09 10:27:09;;;;;;;0.00;0.00;;;26.10;59.20;;;;;;4891127;29;20032;-74
2021/08/09 10:30:01;;;;;;;0.00;0.00;;;26.10;57.90;;;;;;4901697;29;20370;-74
2021/08/09 10:32:26;;;;;;;0.00;0.00;;;26.10;58.40;;;;;;4882424;29;20025;-74
2021/08/09 10:34:53;;;;;;;0.00;0.00;;;26.30;53.90;;;;;;4895553;29;20479;-74
2021/08/09 10:37:20;;;;;;;0.10;0.10;;;26.60;53.80;;;;;;4902010;29;20024;-75
2021/08/09 10:39:59;;;;;;;0.10;0.10;;;26.60;53.60;;;;;;4916746;29;20071;-74
2021/08/09 10:42:40;;;;;;;0.00;0.00;;;26.80;55.30;;;;;;4893656;29;20032;-74
2021/08/09 10:45:10;;;;;;;0.07;0.07;;;27.10;52.50;;;;;;4910980;29;20041;-75
2021/08/09 10:47:45;;;;;;;1.17;0.20;;;27.00;52.60;;;;;;4903321;29;20484;-74
2021/08/09 10:50:33;;;;;;;0.10;0.10;;;26.70;51.60;;;;;;4897325;29;20033;-75
2021/08/09 10:52:59;;;;;;;0.10;0.10;;;27.20;52.90;;;;;;4902941;29;20032;-75
2021/08/09 10:55:31;;;;;;;0.00;0.00;;;27.40;53.20;;;;;;4906011;29;20089;-73
2021/08/09 10:58:06;;;;;;;0.03;0.03;;;27.70;52.30;;;;;;4909349;29;20035;-76
2021/08/09 11:00:38;;;;;;;0.10;0.10;;;27.90;50.00;;;;;;4918713;29;20020;-75
2021/08/09 11:03:04;;;;;;;;;;;27.80;50.30;;;;;;4917347;29;20060;-76
2021/08/09 11:05:30;;;;;;;0.20;0.20;;;27.90;50.70;;;;;;4918969;29;19958;-77
2021/08/09 11:08:20;;;;;;;0.00;0.00;;;27.50;49.80;;;;;;4897900;29;20028;-74
2021/08/09 11:10:55;;;;;;;0.00;0.00;;;27.90;50.90;;;;;;4918494;29;20032;-75
2021/08/09 11:13:25;;;;;;;0.00;0.00;;;27.50;52.30;;;;;;4918246;29;20031;-75
2021/08/09 11:16:04;;;;;;;0.13;0.13;;;27.70;51.80;;;;;;4918546;29;20027;-75
2021/08/09 11:18:34;;;;;;;0.08;0.08;;;28.00;52.40;;;;;;4918300;29;20408;-75
2021/08/09 11:21:08;;;;;;;0.00;0.00;;;27.80;51.10;;;;;;4918317;29;20049;-75
2021/08/09 11:23:43;;;;;;;0.05;0.05;;;27.80;50.80;;;;;;4917880;29;20024;-75
2021/08/09 11:26:21;;;;;;;0.00;0.00;;;27.70;49.80;;;;;;4918201;29;20432;-75
2021/08/09 11:29:01;;;;;;;0.00;0.00;;;28.10;50.50;;;;;;4908801;29;20052;-75
2021/08/09 11:31:28;;;;;;;0.00;0.00;;;28.20;49.20;;;;;;4898171;29;20024;-74
2021/08/09 11:33:55;;;;;;;0.75;0.75;;;27.90;49.40;;;;;;4898300;29;20485;-74
2021/08/09 11:36:20;;;;;;;0.00;0.00;;;28.00;49.00;;;;;;4877969;29;20025;-75
2021/08/09 11:38:49;;;;;;;0.00;0.00;;;28.00;49.60;;;;;;4899694;29;20035;-74
2021/08/09 11:41:28;;;;;;;0.00;0.00;;;28.10;51.40;;;;;;4899140;29;20547;-73
2021/08/09 11:44:05;;;;;;;0.00;0.00;;;28.20;50.50;;;;;;4916345;29;20084;-74
2021/08/09 11:46:33;;;;;;;0.00;0.00;;;27.60;50.70;;;;;;4916048;29;20424;-74
2021/08/09 11:48:59;;;;;;;0.00;0.00;;;27.70;50.20;;;;;;4911587;29;20283;-75
2021/08/09 11:51:26;;;;;;;0.00;0.00;;;27.90;50.90;;;;;;4917040;29;20546;-75
2021/08/09 11:53:53;;;;;;;0.00;0.00;;;27.70;49.80;;;;;;4916532;29;20110;-75
2021/08/09 11:56:30;;;;;;;0.03;0.03;;;27.60;50.50;;;;;;4916126;29;20111;-74
2021/08/09 11:59:10;;;;;;;0.20;0.20;;;27.50;51.80;;;;;;4907941;29;20028;-76
2021/08/09 12:01:38;;;;;;;0.08;0.08;;;27.40;52.10;;;;;;4915487;29;20104;-74
2021/08/09 12:04:14;;;;;;;0.20;0.05;;;27.30;52.70;;;;;;4912707;29;20024;-74
2021/08/09 12:06:57;;;;;;;0.35;0.35;;;26.70;52.70;;;;;;4916643;29;20028;-73
2021/08/09 12:09:38;;;;;;;0.00;0.00;;;26.70;53.40;;;;;;4910978;29;20024;-74
2021/08/09 12:12:06;;;;;;;0.00;0.00;;;26.80;54.20;;;;;;4916764;29;20401;-75
2021/08/09 12:14:32;;;;;;;0.00;0.00;;;26.90;54.20;;;;;;4912481;29;20035;-74
2021/08/09 12:17:01;;;;;;;0.00;0.00;;;26.90;53.50;;;;;;4899636;29;20039;-74
2021/08/09 12:19:57;;;;;;;0.30;0.30;;;27.00;53.40;;;;;;4914239;29;20024;-76
2021/08/09 12:22:34;;;;;;;0.05;0.05;;;26.60;54.10;;;;;;4910063;29;20131;-74
2021/08/09 12:25:12;;;;;;;0.00;0.00;;;26.30;54.70;;;;;;4914844;29;20417;-74
2021/08/09 12:27:39;;;;;;;0.00;0.00;;;26.00;55.70;;;;;;4914946;29;20429;-74
2021/08/09 12:30:11;;;;;;;0.00;0.00;;;26.10;55.90;;;;;;4913301;29;20103;-75
2021/08/09 12:32:39;;;;;;;0.00;0.00;;;25.80;55.50;;;;;;4916280;29;20050;-75
2021/08/09 12:35:07;;;;;;;0.17;0.17;;;25.60;55.60;;;;;;4915833;29;20028;-75
2021/08/09 12:37:39;;;;;;;0.00;0.00;;;25.80;56.10;;;;;;4916340;29;20047;-74
2021/08/09 12:40:12;;;;;;;0.00;0.00;;;25.60;55.50;;;;;;4898736;29;20032;-75
2021/08/09 12:42:39;;;;;;;0.00;0.00;;;25.60;56.80;;;;;;4908328;29;20035;-74
2021/08/09 12:45:06;;;;;;;0.00;0.00;;;25.30;57.40;;;;;;4913992;29;20436;-75
2021/08/09 12:47:32;;;;;;;0.00;0.00;;;25.10;57.50;;;;;;4916035;29;20032;-75
2021/08/09 12:49:58;;;;;;;0.00;0.00;;;25.00;56.70;;;;;;4914986;29;20508;-75
2021/08/09 12:52:24;;;;;;;0.00;0.00;;;25.10;57.50;;;;;;4914904;29;20024;-75
2021/08/09 12:54:49;;;;;;;0.00;0.00;;;25.20;58.30;;;;;;4911188;29;20040;-75
2021/08/09 12:57:16;;;;;;;0.00;0.00;;;25.20;57.20;;;;;;4916336;29;20036;-75
2021/08/09 12:59:42;;;;;;;0.10;0.10;;;25.20;59.00;;;;;;4912599;29;20063;-74